ePrivacy and GPDR Cookie Consent by Cookie Consent
EmailTwitter


Surface observations / United Kingdom / EGLL (03772)

Regions: Quebec | Canada | USA | Europe | France | UK | Elsewhere
Station
Display
Info & Location for EGLL (03772) | Help decoding METAR

Weather Conditions observed on 2022/06/25 at 00:20 UTC at LONDON/HEATHROW, UK (EGLL)

Sky conditions: few clouds.

Temperature: 14.0 Celsius.

Dewpoint: 12.0 Celsius.

Relative Humidity: 88%

Winds: Southwest at 19 km/h or 10 knots.

Mean Sea level Pressure: 100.50 kilopascals.

Horizontal visibility: 6.21 statute miles or 9.94 kilometers.

Coded METAR:

EGLL 250020Z AUTO 21010KT 9999 FEW021 14/12 Q1005 NOSIG=